Time;durP1;ratioP1;P1;durP2;ratioP2;P2;SDS_P1;SDS_P2;PMS_P1;PMS_P2;Temp;Humidity;BMP_temperature;BMP_pressure;BME280_temperature;BME280_humidity;BME280_pressure;Samples;Min_cycle;Max_cycle;Signal;HPM_P1;HPM_P2
2022/11/25 00:00:40;;;;;;;0.00;0.00;;;;;;;16.34;61.57;101025.69;2085894;28;20057;-72
2022/11/25 00:01:44;;;;;;;0.00;0.00;;;;;;;16.36;61.43;101023.38;2094045;28;20049;-72
2022/11/25 00:02:45;;;;;;;0.00;0.00;;;;;;;16.34;61.38;101017.50;2091847;28;20118;-71
2022/11/25 00:03:49;;;;;;;0.00;0.00;;;;;;;16.34;61.41;101018.31;2090542;28;20186;-72
2022/11/25 00:04:51;;;;;;;0.00;0.00;;;;;;;16.34;61.42;101023.75;2083006;28;20056;-72
2022/11/25 00:05:54;;;;;;;0.00;0.00;;;;;;;16.34;61.51;101023.75;2076808;28;20049;-71
2022/11/25 00:06:56;;;;;;;0.00;0.00;;;;;;;16.33;61.41;101019.44;2084970;28;20091;-72
2022/11/25 00:07:58;;;;;;;0.00;0.00;;;;;;;16.33;61.41;101018.69;2093281;28;20091;-72
2022/11/25 00:09:03;;;;;;;0.00;0.00;;;;;;;16.35;61.46;101019.88;2095001;28;20854;-72
2022/11/25 00:10:06;;;;;;;0.00;0.00;;;;;;;16.33;61.15;101024.91;2093814;28;20068;-72
2022/11/25 00:11:11;;;;;;;0.00;0.00;;;;;;;16.34;61.37;101012.06;2092213;28;20053;-72
2022/11/25 00:12:12;;;;;;;0.00;0.00;;;;;;;16.33;61.45;101016.72;2088771;28;20085;-73
2022/11/25 00:13:15;;;;;;;0.00;0.00;;;;;;;16.34;61.30;101014.78;2091454;28;20176;-72
2022/11/25 00:14:17;;;;;;;0.00;0.00;;;;;;;16.34;61.30;101023.75;2087158;28;20611;-72
2022/11/25 00:15:20;;;;;;;0.00;0.00;;;;;;;16.33;61.46;101026.84;2087259;28;20124;-72
2022/11/25 00:16:23;;;;;;;0.00;0.00;;;;;;;16.33;61.38;101022.16;2087958;28;20084;-72
2022/11/25 00:17:27;;;;;;;0.00;0.00;;;;;;;16.34;61.34;101021.03;2090383;28;20083;-71
2022/11/25 00:18:29;;;;;;;0.00;0.00;;;;;;;16.33;61.50;101022.16;2095072;28;20539;-72
2022/11/25 00:19:32;;;;;;;0.00;0.00;;;;;;;16.34;61.46;101017.50;2093139;28;20083;-72
2022/11/25 00:20:36;;;;;;;0.00;0.00;;;;;;;16.33;61.47;101016.72;2094163;28;20051;-72
2022/11/25 00:21:38;;;;;;;0.00;0.00;;;;;;;16.33;61.36;101016.72;2079728;28;20070;-71
2022/11/25 00:22:40;;;;;;;0.00;0.00;;;;;;;16.34;61.40;101018.31;2084593;28;20060;-72
2022/11/25 00:23:43;;;;;;;0.00;0.00;;;;;;;16.34;61.44;101026.47;2085555;28;20049;-72
2022/11/25 00:24:46;;;;;;;0.00;0.00;;;;;;;16.33;61.32;101021.41;2082377;28;20068;-72
2022/11/25 00:25:47;;;;;;;0.00;0.00;;;;;;;16.33;61.31;101016.72;2085993;28;20049;-72
2022/11/25 00:26:50;;;;;;;0.00;0.00;;;;;;;16.33;61.22;101016.72;2086960;28;20119;-71
2022/11/25 00:27:52;;;;;;;0.00;0.00;;;;;;;16.34;61.51;101017.50;2089401;28;20064;-71
2022/11/25 00:28:57;;;;;;;0.00;0.00;;;;;;;16.33;61.52;101011.28;2091362;28;20056;-72
2022/11/25 00:30:00;;;;;;;0.00;0.00;;;;;;;16.32;61.49;101015.16;2094538;28;20086;-72
2022/11/25 00:31:06;;;;;;;0.00;0.00;;;;;;;16.32;61.36;101011.66;2091357;28;20078;-71
2022/11/25 00:32:09;;;;;;;0.00;0.00;;;;;;;16.31;61.32;101008.16;2092960;28;20056;-72
2022/11/25 00:33:12;;;;;;;0.00;0.00;;;;;;;16.33;61.45;101007.78;2090861;28;20067;-72
2022/11/25 00:34:16;;;;;;;0.00;0.00;;;;;;;16.33;61.41;101011.28;2090922;28;20063;-72
2022/11/25 00:35:17;;;;;;;0.00;0.00;;;;;;;16.32;61.42;101007.00;2091250;28;20052;-71
2022/11/25 00:36:22;;;;;;;0.00;0.00;;;;;;;16.33;61.55;101010.50;2089148;28;20706;-71
2022/11/25 00:37:24;;;;;;;0.00;0.00;;;;;;;16.32;61.36;101015.16;2081268;28;20062;-71
2022/11/25 00:38:27;;;;;;;0.00;0.00;;;;;;;16.33;61.44;101005.81;2082238;28;20128;-71
2022/11/25 00:39:29;;;;;;;0.00;0.00;;;;;;;16.33;61.32;101016.72;2082377;28;20068;-72
2022/11/25 00:40:31;;;;;;;0.00;0.00;;;;;;;16.32;61.43;101012.44;2075241;28;20065;-71
2022/11/25 00:45:36;;;;;;;0.00;0.00;;;;;;;16.19;61.70;101005.69;2087873;28;19996;-72
2022/11/25 00:46:40;;;;;;;0.00;0.00;;;;;;;16.22;61.61;101010.38;2081315;28;20084;-72
2022/11/25 00:47:43;;;;;;;0.00;0.00;;;;;;;16.24;61.47;101005.34;2087258;28;20053;-71
2022/11/25 00:48:46;;;;;;;0.00;0.00;;;;;;;16.26;61.46;101008.50;2089914;28;20432;-72
2022/11/25 00:49:50;;;;;;;0.00;0.00;;;;;;;16.27;61.45;101015.50;2086933;28;20056;-71
2022/11/25 00:50:52;;;;;;;0.00;0.00;;;;;;;16.27;61.56;101006.53;2087461;28;20063;-72
2022/11/25 00:51:55;;;;;;;0.00;0.00;;;;;;;16.28;61.65;101008.88;2090869;28;20049;-71
2022/11/25 00:52:58;;;;;;;0.00;0.00;;;;;;;16.28;61.52;101008.13;2084910;28;20053;-71
2022/11/25 00:54:01;;;;;;;0.00;0.00;;;;;;;16.27;61.52;101010.06;2079844;28;20460;-72
2022/11/25 00:55:04;;;;;;;0.00;0.00;;;;;;;16.28;61.59;101011.59;2091726;28;20056;-72
2022/11/25 00:56:14;;;;;;;0.00;0.00;;;;;;;16.27;61.46;101006.53;2085336;28;20045;-72
2022/11/25 00:57:18;;;;;;;0.00;0.00;;;;;;;16.27;61.46;101006.53;2070767;28;20530;-71
2022/11/25 00:58:20;;;;;;;0.00;0.00;;;;;;;16.28;61.64;101016.28;2076958;28;20061;-72
2022/11/25 00:59:23;;;;;;;0.00;0.00;;;;;;;16.27;61.60;101007.31;2086234;28;20089;-72
2022/11/25 01:00:24;;;;;;;0.00;0.00;;;;;;;16.28;61.59;101019.78;2078678;28;20592;-71
2022/11/25 01:01:27;;;;;;;0.00;0.00;;;;;;;16.29;61.44;101004.22;2078936;28;20068;-71
2022/11/25 01:02:30;;;;;;;0.00;0.00;;;;;;;16.28;61.65;101008.13;2078939;28;20057;-71
2022/11/25 01:03:32;;;;;;;0.00;0.00;;;;;;;16.29;61.51;101006.94;2079770;28;20057;-71
2022/11/25 01:04:36;;;;;;;0.00;0.00;;;;;;;16.29;61.56;101004.22;2081834;28;20052;-72
2022/11/25 01:05:38;;;;;;;0.00;0.00;;;;;;;16.28;61.44;101014.34;2076533;28;20075;-72
2022/11/25 01:06:41;;;;;;;0.00;0.00;;;;;;;16.29;61.57;101004.22;2084724;28;20499;-71
2022/11/25 01:07:43;;;;;;;0.00;0.00;;;;;;;16.29;61.57;101006.94;2091969;28;20116;-72
2022/11/25 01:08:46;;;;;;;0.00;0.00;;;;;;;16.29;61.43;101006.94;2083895;28;20041;-71
2022/11/25 01:09:48;;;;;;;0.00;0.00;;;;;;;16.29;61.46;101005.03;2078679;28;20044;-71
2022/11/25 01:10:58;;;;;;;0.00;0.00;;;;;;;16.28;61.54;101003.44;2084804;28;20071;-71
2022/11/25 01:12:00;;;;;;;0.00;0.00;;;;;;;16.27;61.28;101007.31;2090724;28;20508;-72
2022/11/25 01:13:05;;;;;;;0.00;0.00;;;;;;;16.28;61.59;101003.44;2086082;28;20045;-72
2022/11/25 01:14:10;;;;;;;0.00;0.00;;;;;;;16.28;61.50;101003.44;2079014;28;20060;-71
2022/11/25 01:15:12;;;;;;;0.00;0.00;;;;;;;16.28;61.39;101008.88;2079932;28;20060;-71
2022/11/25 01:16:17;;;;;;;0.10;0.10;;;;;;;16.29;61.32;101002.28;2092463;28;20056;-72
2022/11/25 01:17:21;;;;;;;0.00;0.00;;;;;;;16.28;61.59;101005.41;2081521;28;20045;-71
2022/11/25 01:18:23;;;;;;;0.00;0.00;;;;;;;16.28;61.58;101014.34;2065535;28;20062;-71
2022/11/25 01:19:28;;;;;;;0.00;0.00;;;;;;;16.28;61.60;101008.13;2069176;28;20049;-71
2022/11/25 01:20:34;;;;;;;0.00;0.00;;;;;;;16.28;61.60;101008.13;2085294;28;20413;-70
2022/11/25 01:21:38;;;;;;;0.00;0.00;;;;;;;16.28;61.44;101002.66;2086937;28;20052;-71
2022/11/25 01:22:39;;;;;;;0.00;0.00;;;;;;;16.28;61.45;101008.88;2083620;28;20055;-72
2022/11/25 01:23:43;;;;;;;0.00;0.00;;;;;;;16.28;61.57;101014.34;2073133;28;20057;-71
2022/11/25 01:24:47;;;;;;;0.00;0.00;;;;;;;16.28;61.44;101008.88;2078142;28;20079;-72
2022/11/25 01:25:49;;;;;;;0.00;0.00;;;;;;;16.28;61.48;101014.34;2084417;28;20251;-71
2022/11/25 01:26:54;;;;;;;0.00;0.00;;;;;;;16.28;61.38;101008.88;2092405;28;20097;-71
2022/11/25 01:27:56;;;;;;;0.00;0.00;;;;;;;16.27;61.45;101007.31;2071222;28;20069;-71
2022/11/25 01:29:01;;;;;;;0.00;0.00;;;;;;;16.29;61.41;101009.69;2070094;28;20045;-71
2022/11/25 01:30:03;;;;;;;0.05;0.05;;;;;;;16.27;61.62;101007.31;2078869;28;20453;-71
2022/11/25 01:31:09;;;;;;;0.00;0.00;;;;;;;16.28;61.50;101008.88;2086550;28;20129;-71
2022/11/25 01:32:12;;;;;;;0.00;0.00;;;;;;;16.28;61.41;101013.56;2087974;28;20053;-72
2022/11/25 01:33:14;;;;;;;0.00;0.00;;;;;;;16.29;61.46;101015.13;2088020;28;20059;-72
2022/11/25 01:34:19;;;;;;;0.00;0.00;;;;;;;16.29;61.59;101015.13;2090235;28;20064;-72
2022/11/25 01:35:21;;;;;;;0.00;0.00;;;;;;;16.28;61.47;101006.16;2090019;28;20055;-71
2022/11/25 01:36:26;;;;;;;0.00;0.00;;;;;;;16.29;61.53;101010.47;2093526;28;20422;-71
2022/11/25 01:37:28;;;;;;;0.00;0.00;;;;;;;16.28;61.45;101025.22;2092867;28;20051;-70
2022/11/25 01:38:35;;;;;;;0.00;0.00;;;;;;;16.29;61.49;101020.56;2092270;28;20053;-72
2022/11/25 01:39:41;;;;;;;0.00;0.00;;;;;;;16.26;61.63;101015.88;2072005;28;20505;-72
2022/11/25 01:40:44;;;;;;;0.00;0.00;;;;;;;16.29;61.60;101021.38;2075795;28;20115;-72
2022/11/25 01:41:47;;;;;;;0.00;0.00;;;;;;;16.27;61.53;101007.31;2092912;28;20083;-72
2022/11/25 01:42:50;;;;;;;0.00;0.00;;;;;;;16.27;61.50;101011.97;2092764;28;20078;-73
2022/11/25 01:44:07;;;;;;;0.00;0.00;;;;;;;16.24;61.47;101010.81;2090028;28;20091;-72
2022/11/25 01:45:33;;;;;;;0.00;0.00;;;;;;;16.18;61.46;101014.22;2083454;28;20127;-72
2022/11/25 01:47:02;;;;;;;0.00;0.00;;;;;;;16.14;61.53;101014.19;2079027;28;20124;-73
2022/11/25 01:48:11;;;;;;;0.00;0.00;;;;;;;16.21;61.65;101016.22;2084074;28;20060;-73
2022/11/25 01:49:19;;;;;;;0.10;0.10;;;;;;;16.22;61.56;101018.56;2083169;28;20060;-72
2022/11/25 01:50:24;;;;;;;0.00;0.00;;;;;;;16.23;61.56;101016.63;2084944;28;20894;-73
2022/11/25 01:51:36;;;;;;;0.00;0.00;;;;;;;16.23;61.43;101017.41;2078249;28;20053;-72
2022/11/25 01:52:44;;;;;;;0.00;0.00;;;;;;;16.22;61.60;101004.19;2079581;28;20215;-72
2022/11/25 01:53:47;;;;;;;0.00;0.00;;;;;;;16.22;61.51;101015.84;2092945;28;20079;-72
2022/11/25 01:54:54;;;;;;;0.00;0.00;;;;;;;16.24;61.55;101013.53;2077844;28;20054;-72
2022/11/25 01:56:04;;;;;;;0.00;0.00;;;;;;;16.19;61.52;101008.41;2077611;28;20054;-73
2022/11/25 01:57:14;;;;;;;0.00;0.00;;;;;;;16.22;61.61;101009.63;2091891;28;20788;-71
2022/11/25 01:58:21;;;;;;;0.00;0.00;;;;;;;16.23;61.61;101014.69;2073664;28;20462;-71
2022/11/25 01:59:24;;;;;;;0.00;0.00;;;;;;;16.23;61.68;101014.69;2059189;28;20046;-71
2022/11/25 02:00:27;;;;;;;0.00;0.00;;;;;;;16.23;61.61;101003.81;2071356;28;20054;-71
2022/11/25 02:01:29;;;;;;;0.00;0.00;;;;;;;16.24;61.63;101008.06;2092543;28;20516;-70
2022/11/25 02:02:33;;;;;;;0.00;0.00;;;;;;;16.25;61.67;101001.47;2089506;28;20068;-71
2022/11/25 02:03:40;;;;;;;0.00;0.00;;;;;;;16.24;61.40;101004.56;2088167;28;20065;-71
2022/11/25 02:04:45;;;;;;;0.00;0.00;;;;;;;16.25;61.45;101017.03;2080399;28;20064;-70
2022/11/25 02:05:52;;;;;;;0.10;0.10;;;;;;;16.24;61.63;101010.81;2080794;28;20080;-71
2022/11/25 02:07:03;;;;;;;0.00;0.00;;;;;;;16.23;61.44;101009.25;2087384;28;20681;-70
2022/11/25 02:08:06;;;;;;;0.00;0.00;;;;;;;16.23;61.63;101011.97;2089955;28;20083;-70
2022/11/25 02:09:11;;;;;;;0.00;0.00;;;;;;;16.23;61.67;101009.25;2089979;28;20048;-70
2022/11/25 02:10:18;;;;;;;0.00;0.00;;;;;;;16.22;61.58;101004.94;2087012;28;20053;-71
2022/11/25 02:11:25;;;;;;;0.00;0.00;;;;;;;16.24;61.50;101010.00;2077526;28;20108;-71
2022/11/25 02:12:28;;;;;;;0.00;0.00;;;;;;;16.23;61.57;101009.25;2084427;28;20052;-70
2022/11/25 02:13:33;;;;;;;0.00;0.00;;;;;;;16.23;61.61;101006.53;2088309;28;20396;-71
2022/11/25 02:14:35;;;;;;;0.00;0.00;;;;;;;16.24;61.61;101007.28;2089717;28;20056;-71
2022/11/25 02:15:38;;;;;;;0.00;0.00;;;;;;;16.23;61.48;101011.97;2080615;28;20060;-71
2022/11/25 02:16:40;;;;;;;0.00;0.00;;;;;;;16.24;61.46;101008.06;2084501;28;20060;-71
2022/11/25 02:17:44;;;;;;;0.00;0.00;;;;;;;16.25;61.50;101006.16;2079750;28;20053;-71
2022/11/25 02:18:46;;;;;;;0.00;0.00;;;;;;;16.24;61.54;101005.34;2064879;28;20496;-72
2022/11/25 02:19:59;;;;;;;0.00;0.00;;;;;;;16.23;61.50;101005.72;2062431;28;20066;-72
2022/11/25 02:21:03;;;;;;;0.00;0.00;;;;;;;16.23;61.59;101005.72;2074902;28;20133;-71
2022/11/25 02:22:15;;;;;;;0.00;0.00;;;;;;;16.23;61.64;101001.06;2075715;28;20049;-72
2022/11/25 02:23:25;;;;;;;0.00;0.00;;;;;;;16.23;61.61;101006.53;2071928;28;20065;-72
2022/11/25 02:24:33;;;;;;;0.00;0.00;;;;;;;16.22;62.13;101002.22;2072335;28;20050;-72
2022/11/25 02:25:40;;;;;;;0.00;0.00;;;;;;;16.23;61.53;101001.06;2075609;28;20093;-72
2022/11/25 02:26:46;;;;;;;0.00;0.00;;;;;;;16.21;61.66;100995.22;2077952;28;20100;-72
2022/11/25 02:27:54;;;;;;;0.00;0.00;;;;;;;16.24;61.57;101001.84;2078090;28;20093;-71
2022/11/25 02:28:57;;;;;;;0.00;0.00;;;;;;;16.22;61.57;100999.50;2072194;28;20501;-72
2022/11/25 02:29:59;;;;;;;0.00;0.00;;;;;;;16.22;61.71;100996.75;2065802;28;20054;-72
2022/11/25 02:31:02;;;;;;;0.00;0.00;;;;;;;16.24;61.48;101001.84;2074480;28;20076;-72
2022/11/25 02:32:04;;;;;;;0.00;0.00;;;;;;;16.23;61.76;101001.06;2079367;28;20045;-73
2022/11/25 02:33:07;;;;;;;0.00;0.00;;;;;;;16.24;61.59;100999.09;2071082;28;20097;-72
2022/11/25 02:34:09;;;;;;;0.05;0.05;;;;;;;16.23;61.63;100992.91;2081578;28;20051;-72
2022/11/25 02:35:28;;;;;;;0.00;0.00;;;;;;;16.19;61.64;100989.34;2089039;28;20060;-72
2022/11/25 02:36:31;;;;;;;0.00;0.00;;;;;;;16.19;61.77;100992.06;2090465;28;20056;-72
2022/11/25 02:37:34;;;;;;;0.00;0.00;;;;;;;16.22;61.61;100983.13;2092945;28;20052;-72
2022/11/25 02:38:39;;;;;;;0.00;0.00;;;;;;;16.22;61.30;100980.41;2089724;28;20064;-72
2022/11/25 02:39:45;;;;;;;0.03;0.03;;;;;;;16.23;61.71;100983.94;2083887;28;20532;-72
2022/11/25 02:40:53;;;;;;;0.20;0.20;;;;;;;16.21;61.53;100976.13;2079390;28;20349;-72
2022/11/25 02:41:59;;;;;;;0.00;0.00;;;;;;;16.21;61.67;100981.59;2083039;28;20513;-71
2022/11/25 02:43:01;;;;;;;0.00;0.00;;;;;;;16.21;61.62;100981.59;2072765;28;20049;-72
2022/11/25 02:44:05;;;;;;;0.00;0.00;;;;;;;16.23;61.44;100981.22;2063282;28;20092;-72
2022/11/25 02:45:13;;;;;;;0.00;0.00;;;;;;;16.22;61.39;100977.69;2071025;28;20041;-72
2022/11/25 02:46:18;;;;;;;0.00;0.00;;;;;;;16.22;61.54;100983.13;2082860;28;20052;-72
2022/11/25 02:47:23;;;;;;;0.00;0.00;;;;;;;16.22;61.48;100994.03;2080718;28;20122;-72
2022/11/25 02:48:28;;;;;;;0.00;0.00;;;;;;;16.24;61.53;100982.75;2079367;28;20062;-72
2022/11/25 02:49:50;;;;;;;0.00;0.00;;;;;;;16.18;61.55;100984.28;2084596;28;20056;-72
2022/11/25 02:50:53;;;;;;;0.00;0.00;;;;;;;16.21;61.50;100987.03;2069414;28;20132;-72
2022/11/25 02:51:54;;;;;;;0.00;0.00;;;;;;;16.22;61.56;100993.28;2073391;28;20053;-72
2022/11/25 02:52:57;;;;;;;0.00;0.00;;;;;;;16.21;61.60;100992.47;2088926;28;20449;-72
2022/11/25 02:54:01;;;;;;;0.00;0.00;;;;;;;16.23;61.65;100992.91;2081409;28;20056;-71
2022/11/25 02:55:04;;;;;;;0.10;0.10;;;;;;;16.22;61.42;100983.13;2077531;28;20056;-72
2022/11/25 02:56:09;;;;;;;0.10;0.10;;;;;;;16.23;61.60;100984.72;2069063;28;20506;-72
2022/11/25 02:57:11;;;;;;;0.00;0.00;;;;;;;16.22;61.51;100996.75;2070185;28;20143;-71
2022/11/25 02:58:14;;;;;;;0.00;0.00;;;;;;;16.23;61.56;100978.47;2068526;28;20049;-72
2022/11/25 02:59:16;;;;;;;0.00;0.00;;;;;;;16.23;61.45;100981.22;2074190;28;20136;-72
2022/11/25 03:00:20;;;;;;;0.00;0.00;;;;;;;16.23;61.49;100979.28;2075603;28;20092;-71
2022/11/25 03:01:22;;;;;;;0.00;0.00;;;;;;;16.23;61.71;100984.72;2062470;28;20088;-71
2022/11/25 03:02:25;;;;;;;0.00;0.00;;;;;;;16.23;61.60;100976.56;2069616;28;20049;-71
2022/11/25 03:03:27;;;;;;;0.00;0.00;;;;;;;16.23;61.66;100979.28;2075028;28;20066;-71
2022/11/25 03:04:30;;;;;;;0.00;0.00;;;;;;;16.23;61.50;100984.72;2083402;28;20053;-71
2022/11/25 03:05:31;;;;;;;0.00;0.00;;;;;;;16.23;61.66;100982.00;2095029;28;20053;-71
2022/11/25 03:06:34;;;;;;;0.00;0.00;;;;;;;16.24;61.47;100985.50;2083374;28;20052;-72
2022/11/25 03:07:36;;;;;;;0.00;0.00;;;;;;;16.23;61.56;100979.28;2084008;28;20536;-72
2022/11/25 03:08:39;;;;;;;0.00;0.00;;;;;;;16.23;61.47;100979.28;2092497;28;20063;-71
2022/11/25 03:09:44;;;;;;;0.00;0.00;;;;;;;16.23;61.58;100978.47;2085840;28;20044;-72
2022/11/25 03:10:47;;;;;;;0.00;0.00;;;;;;;16.23;61.51;100976.56;2084644;28;20052;-71
2022/11/25 03:13:14;;;;;;;0.00;0.00;;;;;;;16.20;61.66;100982.75;2089357;28;20072;-71
2022/11/25 03:14:16;;;;;;;0.00;0.00;;;;;;;16.21;61.50;100984.31;2091593;28;20064;-71
2022/11/25 03:15:19;;;;;;;0.00;0.00;;;;;;;16.21;61.58;100981.59;2084870;28;20098;-71
2022/11/25 03:16:21;;;;;;;0.00;0.00;;;;;;;16.22;61.47;100983.13;2083100;28;20060;-72
2022/11/25 03:17:23;;;;;;;0.00;0.00;;;;;;;16.23;61.43;100979.28;2085360;28;20802;-71
2022/11/25 03:18:26;;;;;;;0.00;0.00;;;;;;;16.24;61.40;100990.94;2065899;28;20050;-72
2022/11/25 03:19:29;;;;;;;0.00;0.00;;;;;;;16.23;61.47;100983.94;2060602;28;20051;-71
2022/11/25 03:20:31;;;;;;;0.00;0.00;;;;;;;16.24;61.56;100986.28;2070997;28;20563;-71
2022/11/25 03:21:34;;;;;;;0.00;0.00;;;;;;;16.22;61.65;100980.41;2074957;28;20589;-71
2022/11/25 03:22:36;;;;;;;0.00;0.00;;;;;;;16.23;61.54;100987.44;2077957;28;20054;-71
2022/11/25 03:23:39;;;;;;;0.00;0.00;;;;;;;16.23;61.42;100979.28;2083423;28;20085;-71
2022/11/25 03:24:41;;;;;;;0.00;0.00;;;;;;;16.24;61.38;100974.59;2085982;28;20053;-72
2022/11/25 03:25:44;;;;;;;0.00;0.00;;;;;;;16.24;61.37;100980.03;2084881;28;20052;-71
2022/11/25 03:26:46;;;;;;;0.00;0.00;;;;;;;16.22;61.57;100983.13;2077637;28;20129;-71
2022/11/25 03:27:50;;;;;;;0.00;0.00;;;;;;;16.25;61.51;100987.84;2083844;28;20053;-72
2022/11/25 03:28:53;;;;;;;0.00;0.00;;;;;;;16.22;61.56;100979.66;2082924;28;20061;-71
2022/11/25 03:29:56;;;;;;;0.00;0.00;;;;;;;16.24;61.36;100977.31;2077916;28;20057;-71
2022/11/25 03:30:58;;;;;;;0.00;0.00;;;;;;;16.23;61.53;100979.28;2069270;28;20616;-71
2022/11/25 03:32:01;;;;;;;0.00;0.00;;;;;;;16.24;61.63;100988.22;2074826;28;20045;-74
2022/11/25 03:33:10;;;;;;;0.00;0.00;;;;;;;16.21;61.47;100981.59;2081975;28;20464;-74
2022/11/25 03:34:13;;;;;;;0.00;0.00;;;;;;;16.23;61.47;100990.19;2084053;28;21302;-74
2022/11/25 03:35:16;;;;;;;0.00;0.00;;;;;;;16.24;61.37;100993.66;2085588;28;20136;-74
2022/11/25 03:36:19;;;;;;;0.00;0.00;;;;;;;16.22;61.44;100977.69;2078385;28;20569;-74
2022/11/25 03:37:23;;;;;;;0.00;0.00;;;;;;;16.23;61.42;100983.94;2068086;28;20061;-74
2022/11/25 03:38:25;;;;;;;0.00;0.00;;;;;;;16.23;61.30;100984.72;2082198;28;20451;-75
2022/11/25 03:39:28;;;;;;;0.00;0.00;;;;;;;16.23;61.54;100983.94;2077901;28;20127;-75
2022/11/25 03:40:30;;;;;;;0.00;0.00;;;;;;;16.23;61.40;100984.72;2071775;28;20124;-75
2022/11/25 03:41:33;;;;;;;0.00;0.00;;;;;;;16.23;61.54;100986.66;2074703;28;20065;-74
2022/11/25 03:42:35;;;;;;;0.00;0.00;;;;;;;16.23;61.42;100986.66;2075839;28;20041;-74
2022/11/25 03:43:40;;;;;;;0.00;0.00;;;;;;;16.24;61.48;100993.66;2068324;28;20058;-74
2022/11/25 03:44:42;;;;;;;0.00;0.00;;;;;;;16.23;61.38;100989.38;2079847;28;20042;-74
2022/11/25 03:45:48;;;;;;;0.00;0.00;;;;;;;16.23;61.57;100990.19;2085291;28;20050;-75
2022/11/25 03:46:51;;;;;;;0.00;0.00;;;;;;;16.22;61.55;100999.50;2070546;28;20104;-75
2022/11/25 03:47:53;;;;;;;0.00;0.00;;;;;;;16.23;61.46;101003.81;2078995;28;20049;-75
2022/11/25 03:48:55;;;;;;;0.00;0.00;;;;;;;16.23;61.34;101000.28;2095198;28;20112;-74
2022/11/25 03:49:58;;;;;;;0.00;0.00;;;;;;;16.24;61.55;101004.56;2095373;28;20509;-75
2022/11/25 03:51:01;;;;;;;0.00;0.00;;;;;;;16.23;61.47;101000.28;2081626;28;20499;-75
2022/11/25 03:52:04;;;;;;;0.00;0.00;;;;;;;16.23;61.42;101011.19;2078813;28;20509;-75
2022/11/25 03:53:07;;;;;;;0.00;0.00;;;;;;;16.23;61.51;101006.53;2066748;28;20058;-75
2022/11/25 03:54:10;;;;;;;0.00;0.00;;;;;;;16.22;61.33;101004.94;2071289;28;20046;-74
2022/11/25 03:55:32;;;;;;;0.00;0.00;;;;;;;16.19;61.65;101013.84;2081088;28;20118;-75
2022/11/25 03:56:34;;;;;;;0.00;0.00;;;;;;;16.22;61.47;101010.38;2075018;28;20054;-75
2022/11/25 03:57:39;;;;;;;0.00;0.00;;;;;;;16.23;61.45;101011.19;2068954;28;20061;-75
2022/11/25 03:58:43;;;;;;;0.00;0.00;;;;;;;16.22;61.40;101007.66;2064545;28;20054;-74
2022/11/25 03:59:46;;;;;;;0.00;0.00;;;;;;;16.21;61.51;101011.56;2071583;28;20073;-75
2022/11/25 04:00:49;;;;;;;0.00;0.00;;;;;;;16.22;61.48;101015.06;2077491;28;20045;-74
2022/11/25 04:01:52;;;;;;;0.00;0.00;;;;;;;16.22;61.54;101023.25;2074062;28;20158;-75
2022/11/25 04:02:54;;;;;;;0.10;0.10;;;;;;;16.22;61.50;101024.00;2069025;28;20525;-75
2022/11/25 04:03:57;;;;;;;0.00;0.00;;;;;;;16.22;61.41;101025.97;2079761;28;20517;-74
2022/11/25 04:04:58;;;;;;;0.00;0.00;;;;;;;16.22;61.34;101026.72;2074865;28;20057;-75
2022/11/25 04:06:02;;;;;;;0.00;0.00;;;;;;;16.23;61.59;101030.25;2070250;28;20858;-74
2022/11/25 04:07:05;;;;;;;0.00;0.00;;;;;;;16.21;61.46;101030.63;2071279;28;20061;-74
2022/11/25 04:08:08;;;;;;;0.00;0.00;;;;;;;16.23;61.33;101038.41;2078111;28;20079;-74
2022/11/25 04:09:11;;;;;;;0.00;0.00;;;;;;;16.22;61.51;101029.47;2076413;28;20140;-74
2022/11/25 04:10:14;;;;;;;0.00;0.00;;;;;;;16.22;61.37;101032.19;2087221;28;20052;-74
2022/11/25 04:11:17;;;;;;;0.00;0.00;;;;;;;16.22;61.38;101020.53;2085178;28;20054;-74
2022/11/25 04:13:45;;;;;;;0.00;0.00;;;;;;;16.19;61.56;101023.97;2072538;28;20816;-75
2022/11/25 04:14:48;;;;;;;0.00;0.00;;;;;;;16.21;61.42;101016.22;2078707;28;20081;-74
2022/11/25 04:15:50;;;;;;;0.00;0.00;;;;;;;16.21;61.54;101017.00;2096343;28;20055;-75
2022/11/25 04:16:53;;;;;;;0.00;0.00;;;;;;;16.21;61.39;101018.94;2085655;28;20517;-74
2022/11/25 04:17:55;;;;;;;0.00;0.00;;;;;;;16.21;61.70;101022.44;2077020;28;20188;-75
2022/11/25 04:18:58;;;;;;;0.00;0.00;;;;;;;16.22;61.47;101020.53;2074168;28;20053;-74
2022/11/25 04:20:00;;;;;;;0.00;0.00;;;;;;;16.21;61.54;101025.19;2087020;28;20065;-75
2022/11/25 04:21:04;;;;;;;0.03;0.03;;;;;;;16.22;61.39;101036.88;2079754;28;20046;-74
2022/11/25 04:22:06;;;;;;;0.00;0.00;;;;;;;16.21;61.46;101036.06;2079085;28;20061;-75
2022/11/25 04:23:13;;;;;;;0.00;0.00;;;;;;;16.21;61.38;101041.53;2077414;28;20042;-74
2022/11/25 04:24:23;;;;;;;0.00;0.00;;;;;;;16.19;61.55;101043.03;2073339;28;20129;-74
2022/11/25 04:25:26;;;;;;;0.00;0.00;;;;;;;16.20;61.39;101039.97;2077697;28;20049;-74
2022/11/25 04:26:28;;;;;;;0.00;0.00;;;;;;;16.20;61.58;101042.69;2087396;28;20056;-74
2022/11/25 04:27:32;;;;;;;0.00;0.00;;;;;;;16.21;61.50;101040.72;2092821;28;20049;-74
2022/11/25 04:28:33;;;;;;;0.00;0.00;;;;;;;16.21;61.36;101046.97;2082247;28;20045;-74
2022/11/25 04:29:38;;;;;;;0.00;0.00;;;;;;;16.20;61.39;101045.41;2067507;28;20085;-74
2022/11/25 04:30:40;;;;;;;0.03;0.03;;;;;;;16.21;61.49;101044.25;2076659;28;20053;-74
2022/11/25 04:31:43;;;;;;;0.00;0.00;;;;;;;16.21;61.43;101046.97;2086455;28;20506;-75
2022/11/25 04:32:45;;;;;;;0.00;0.00;;;;;;;16.21;61.56;101049.69;2079749;28;20058;-74
2022/11/25 04:33:49;;;;;;;0.00;0.00;;;;;;;16.21;61.35;101046.97;2076188;28;20448;-74
2022/11/25 04:34:57;;;;;;;0.00;0.00;;;;;;;16.20;61.59;101050.88;2067661;28;20086;-75
2022/11/25 04:35:59;;;;;;;0.00;0.00;;;;;;;16.20;61.54;101048.13;2069408;28;20370;-75
2022/11/25 04:37:02;;;;;;;0.00;0.00;;;;;;;16.21;61.39;101051.63;2078719;28;20603;-74
2022/11/25 04:38:04;;;;;;;0.10;0.10;;;;;;;16.21;61.57;101043.44;2068766;28;20522;-74
2022/11/25 04:39:09;;;;;;;0.00;0.00;;;;;;;16.20;61.39;101039.97;2075137;28;20045;-74
2022/11/25 04:40:12;;;;;;;0.00;0.00;;;;;;;16.21;61.71;101046.97;2083623;28;20054;-74
2022/11/25 04:41:21;;;;;;;0.00;0.00;;;;;;;16.19;61.50;101043.81;2079460;28;20503;-75
2022/11/25 04:42:33;;;;;;;0.00;0.00;;;;;;;16.20;61.72;101044.63;2080190;28;20099;-75
2022/11/25 04:43:38;;;;;;;0.00;0.00;;;;;;;16.19;61.42;101043.81;2071246;28;20046;-74
2022/11/25 04:44:45;;;;;;;0.00;0.00;;;;;;;16.19;61.61;101056.66;2080925;28;20481;-75
2022/11/25 04:46:12;;;;;;;0.00;0.00;;;;;;;16.16;61.50;101050.03;2085788;28;20057;-74
2022/11/25 04:47:18;;;;;;;0.00;0.00;;;;;;;16.15;61.44;101053.91;2078524;28;20409;-75
2022/11/25 04:48:21;;;;;;;0.00;0.00;;;;;;;16.16;61.57;101050.03;2078132;28;20095;-74
2022/11/25 04:49:23;;;;;;;0.00;0.00;;;;;;;16.18;61.56;101061.34;2082535;28;20049;-74
2022/11/25 04:50:26;;;;;;;0.00;0.00;;;;;;;16.18;61.56;101050.44;2090656;28;20057;-75
2022/11/25 04:51:35;;;;;;;0.00;0.00;;;;;;;16.15;61.58;101059.38;2075817;28;20053;-74
2022/11/25 04:52:40;;;;;;;0.00;0.00;;;;;;;16.17;61.48;101057.03;2067663;28;20204;-75
2022/11/25 04:53:42;;;;;;;0.00;0.00;;;;;;;16.18;61.58;101058.63;2071513;28;20088;-75
2022/11/25 04:54:46;;;;;;;0.00;0.00;;;;;;;16.18;61.32;101061.34;2071634;28;20065;-75
2022/11/25 04:55:48;;;;;;;0.00;0.00;;;;;;;16.18;61.61;101047.72;2086091;28;20059;-74
2022/11/25 04:56:50;;;;;;;0.00;0.00;;;;;;;16.18;61.40;101053.16;2091087;28;20048;-75
2022/11/25 04:57:53;;;;;;;0.00;0.00;;;;;;;16.19;61.58;101051.22;2083222;28;20064;-75
2022/11/25 05:00:23;;;;;;;0.00;0.00;;;;;;;16.15;61.55;101048.47;2083086;28;20041;-75
2022/11/25 05:01:24;;;;;;;0.00;0.00;;;;;;;16.15;61.57;101043.03;2084718;28;20044;-75
2022/11/25 05:02:33;;;;;;;0.00;0.00;;;;;;;16.17;61.23;101048.09;2079458;28;20060;-75
2022/11/25 05:03:42;;;;;;;0.00;0.00;;;;;;;16.14;61.69;101046.88;2070584;28;20057;-75
2022/11/25 05:04:54;;;;;;;0.00;0.00;;;;;;;16.14;61.75;101046.88;2067817;28;20054;-76
2022/11/25 05:05:57;;;;;;;0.00;0.00;;;;;;;16.14;61.51;101049.59;2079608;28;20132;-76
2022/11/25 05:07:00;;;;;;;0.00;0.00;;;;;;;16.16;61.42;101050.03;2078963;28;20049;-76